sensor_id;sensor_type;location;lat;lon;timestamp;pressure;altitude;pressure_sealevel;temperature;humidity
13068;BME280;6600;51.362;6.686;2023-05-11T00:01:07;100962.38;;;13.68;100.00
13068;BME280;6600;51.362;6.686;2023-05-11T00:03:33;100968.22;;;13.65;100.00
13068;BME280;6600;51.362;6.686;2023-05-11T00:05:59;100958.25;;;13.65;100.00
13068;BME280;6600;51.362;6.686;2023-05-11T00:08:25;100961.56;;;13.68;100.00
13068;BME280;6600;51.362;6.686;2023-05-11T00:10:50;100963.28;;;13.62;100.00
13068;BME280;6600;51.362;6.686;2023-05-11T00:13:16;100964.09;;;13.62;100.00
13068;BME280;6600;51.362;6.686;2023-05-11T00:15:42;100951.34;;;13.58;100.00
13068;BME280;6600;51.362;6.686;2023-05-11T00:18:07;100961.28;;;13.57;100.00
13068;BME280;6600;51.362;6.686;2023-05-11T00:20:33;100965.03;;;13.56;100.00
13068;BME280;6600;51.362;6.686;2023-05-11T00:22:58;100956.72;;;13.58;100.00
13068;BME280;6600;51.362;6.686;2023-05-11T00:25:24;100965.03;;;13.56;100.00
13068;BME280;6600;51.362;6.686;2023-05-11T00:27:49;100961.28;;;13.57;100.00
13068;BME280;6600;51.362;6.686;2023-05-11T00:30:14;100962.91;;;13.58;100.00
13068;BME280;6600;51.362;6.686;2023-05-11T00:32:41;100960.84;;;13.60;100.00
13068;BME280;6600;51.362;6.686;2023-05-11T00:35:07;100974.75;;;13.57;100.00
13068;BME280;6600;51.362;6.686;2023-05-11T00:37:32;100967.94;;;13.55;100.00
13068;BME280;6600;51.362;6.686;2023-05-11T00:39:58;100968.75;;;13.55;100.00
13068;BME280;6600;51.362;6.686;2023-05-11T00:42:23;100978.28;;;13.58;100.00
13068;BME280;6600;51.362;6.686;2023-05-11T00:44:48;100966.06;;;13.55;100.00
13068;BME280;6600;51.362;6.686;2023-05-11T00:47:14;100969.94;;;13.59;100.00
13068;BME280;6600;51.362;6.686;2023-05-11T00:49:40;100969.50;;;13.62;100.00
13068;BME280;6600;51.362;6.686;2023-05-11T00:52:06;100974.78;;;13.69;100.00
13068;BME280;6600;51.362;6.686;2023-05-11T00:54:32;100973.97;;;13.69;100.00
13068;BME280;6600;51.362;6.686;2023-05-11T00:56:57;100973.97;;;13.69;100.00
13068;BME280;6600;51.362;6.686;2023-05-11T00:59:22;100968.59;;;13.69;100.00
13068;BME280;6600;51.362;6.686;2023-05-11T01:01:48;100977.25;;;13.71;100.00
13068;BME280;6600;51.362;6.686;2023-05-11T01:04:13;100971.88;;;13.71;100.00
13068;BME280;6600;51.362;6.686;2023-05-11T01:06:59;100979.63;;;13.79;100.00
13068;BME280;6600;51.362;6.686;2023-05-11T01:12:18;100977.25;;;13.71;100.00
13068;BME280;6600;51.362;6.686;2023-05-11T01:15:09;100978.19;;;13.64;100.00
13068;BME280;6600;51.362;6.686;2023-05-11T01:20:24;100977.72;;;13.68;100.00
13068;BME280;6600;51.362;6.686;2023-05-11T01:26:08;100978.91;;;13.72;100.00
13068;BME280;6600;51.362;6.686;2023-05-11T01:29:09;100983.09;;;13.68;100.00
13068;BME280;6600;51.362;6.686;2023-05-11T01:31:39;100977.72;;;13.68;100.00
13068;BME280;6600;51.362;6.686;2023-05-11T01:34:12;100977.72;;;13.68;100.00
13068;BME280;6600;51.362;6.686;2023-05-11T01:36:46;100981.09;;;13.63;100.00
13068;BME280;6600;51.362;6.686;2023-05-11T01:39:13;100985.63;;;13.62;100.00
13068;BME280;6600;51.362;6.686;2023-05-11T01:41:41;100987.38;;;13.57;100.00
13068;BME280;6600;51.362;6.686;2023-05-11T01:44:09;100990.91;;;13.57;100.00
13068;BME280;6600;51.362;6.686;2023-05-11T01:46:36;100982.47;;;13.54;100.00
13068;BME280;6600;51.362;6.686;2023-05-11T01:49:05;100990.91;;;13.57;100.00
13068;BME280;6600;51.362;6.686;2023-05-11T01:51:35;100981.84;;;13.52;100.00
13068;BME280;6600;51.362;6.686;2023-05-11T01:54:02;100990.28;;;13.55;100.00
13068;BME280;6600;51.362;6.686;2023-05-11T01:56:31;100998.97;;;13.57;100.00
13068;BME280;6600;51.362;6.686;2023-05-11T01:58:58;100991.94;;;13.56;100.00
13068;BME280;6600;51.362;6.686;2023-05-11T02:01:25;100997.78;;;13.53;100.00
13068;BME280;6600;51.362;6.686;2023-05-11T02:03:52;100997.78;;;13.53;100.00
13068;BME280;6600;51.362;6.686;2023-05-11T02:06:18;100999.91;;;13.51;100.00
13068;BME280;6600;51.362;6.686;2023-05-11T02:08:46;100998.63;;;13.54;100.00
13068;BME280;6600;51.362;6.686;2023-05-11T02:11:13;101005.50;;;13.50;100.00
13068;BME280;6600;51.362;6.686;2023-05-11T02:13:41;100995.41;;;13.45;100.00
13068;BME280;6600;51.362;6.686;2023-05-11T02:16:07;101000.34;;;13.48;100.00
13068;BME280;6600;51.362;6.686;2023-05-11T02:18:34;101006.53;;;13.49;100.00
13068;BME280;6600;51.362;6.686;2023-05-11T02:21:03;101000.34;;;13.48;100.00
13068;BME280;6600;51.362;6.686;2023-05-11T02:23:30;101000.78;;;13.45;100.00
13068;BME280;6600;51.362;6.686;2023-05-11T02:25:57;101001.63;;;13.46;100.00
13068;BME280;6600;51.362;6.686;2023-05-11T02:28:22;101006.63;;;13.42;100.00
13068;BME280;6600;51.362;6.686;2023-05-11T02:30:51;101010.72;;;13.45;100.00
13068;BME280;6600;51.362;6.686;2023-05-11T02:33:32;101005.97;;;13.47;100.00
13068;BME280;6600;51.362;6.686;2023-05-11T02:35:58;101008.28;;;13.43;100.00
13068;BME280;6600;51.362;6.686;2023-05-11T02:38:30;101001.25;;;13.42;100.00
13068;BME280;6600;51.362;6.686;2023-05-11T02:40:59;100993.41;;;13.41;100.00
13068;BME280;6600;51.362;6.686;2023-05-11T02:43:31;100998.81;;;13.41;100.00
13068;BME280;6600;51.362;6.686;2023-05-11T02:46:02;100995.28;;;13.40;100.00
13068;BME280;6600;51.362;6.686;2023-05-11T02:48:30;100995.28;;;13.40;100.00
13068;BME280;6600;51.362;6.686;2023-05-11T02:50:57;100996.78;;;13.36;100.00
13068;BME280;6600;51.362;6.686;2023-05-11T02:53:27;100997.59;;;13.37;100.00
13068;BME280;6600;51.362;6.686;2023-05-11T02:55:54;100992.69;;;13.34;100.00
13068;BME280;6600;51.362;6.686;2023-05-11T02:58:20;100994.19;;;13.30;100.00
13068;BME280;6600;51.362;6.686;2023-05-11T03:00:45;100991.94;;;13.27;100.00
13068;BME280;6600;51.362;6.686;2023-05-11T03:03:11;100989.47;;;13.25;100.00
13068;BME280;6600;51.362;6.686;2023-05-11T03:05:36;100992.91;;;13.14;100.00
13068;BME280;6600;51.362;6.686;2023-05-11T03:08:02;100979.25;;;13.15;100.00
13068;BME280;6600;51.362;6.686;2023-05-11T03:10:28;100975.28;;;13.18;100.00
13068;BME280;6600;51.362;6.686;2023-05-11T03:12:54;100972.56;;;13.18;100.00
13068;BME280;6600;51.362;6.686;2023-05-11T03:15:20;100967.56;;;13.22;100.00
13068;BME280;6600;51.362;6.686;2023-05-11T03:17:50;100961.72;;;13.25;100.00
13068;BME280;6600;51.362;6.686;2023-05-11T03:20:16;100952.81;;;13.24;100.00
13068;BME280;6600;51.362;6.686;2023-05-11T03:22:44;100956.72;;;13.28;100.00
13068;BME280;6600;51.362;6.686;2023-05-11T03:25:11;100961.34;;;13.21;100.00
13068;BME280;6600;51.362;6.686;2023-05-11T03:27:38;100955.97;;;13.21;100.00
13068;BME280;6600;51.362;6.686;2023-05-11T03:30:07;100960.31;;;13.22;100.00
13068;BME280;6600;51.362;6.686;2023-05-11T03:32:34;100961.81;;;13.18;100.00
13068;BME280;6600;51.362;6.686;2023-05-11T03:34:59;100957.47;;;13.17;100.00
13068;BME280;6600;51.362;6.686;2023-05-11T03:37:25;100958.53;;;13.16;100.00
13068;BME280;6600;51.362;6.686;2023-05-11T03:39:54;100959.56;;;13.15;100.00
13068;BME280;6600;51.362;6.686;2023-05-11T03:42:21;100960.63;;;13.14;100.00
13068;BME280;6600;51.362;6.686;2023-05-11T03:44:48;100960.63;;;13.14;100.00
13068;BME280;6600;51.362;6.686;2023-05-11T03:47:16;100961.00;;;13.18;100.00
13068;BME280;6600;51.362;6.686;2023-05-11T03:49:42;100968.47;;;13.15;100.00
13068;BME280;6600;51.362;6.686;2023-05-11T03:52:08;100971.38;;;13.14;100.00
13068;BME280;6600;51.362;6.686;2023-05-11T03:54:34;100966.00;;;13.14;100.00
13068;BME280;6600;51.362;6.686;2023-05-11T03:57:00;100968.69;;;13.14;100.00
13068;BME280;6600;51.362;6.686;2023-05-11T03:59:25;100967.66;;;13.15;100.00
13068;BME280;6600;51.362;6.686;2023-05-11T04:01:52;100967.66;;;13.15;100.00
13068;BME280;6600;51.362;6.686;2023-05-11T04:04:27;100967.19;;;13.18;100.00
13068;BME280;6600;51.362;6.686;2023-05-11T04:06:54;100977.97;;;13.18;100.00
13068;BME280;6600;51.362;6.686;2023-05-11T04:09:19;100970.03;;;13.23;100.00
13068;BME280;6600;51.362;6.686;2023-05-11T04:11:44;100969.72;;;13.31;100.00
13068;BME280;6600;51.362;6.686;2023-05-11T04:14:10;100982.88;;;13.39;100.00
13068;BME280;6600;51.362;6.686;2023-05-11T04:16:35;100979.72;;;13.42;100.00
13068;BME280;6600;51.362;6.686;2023-05-11T04:19:00;100969.69;;;13.49;100.00
13068;BME280;6600;51.362;6.686;2023-05-11T04:21:26;100972.38;;;13.49;100.00
13068;BME280;6600;51.362;6.686;2023-05-11T04:23:51;100980.91;;;13.46;100.00
13068;BME280;6600;51.362;6.686;2023-05-11T04:26:16;100981.72;;;13.47;100.00
13068;BME280;6600;51.362;6.686;2023-05-11T04:28:42;100985.38;;;13.52;100.00
13068;BME280;6600;51.362;6.686;2023-05-11T04:31:07;100990.53;;;13.54;100.00
13068;BME280;6600;51.362;6.686;2023-05-11T04:33:32;100994.28;;;13.53;100.00
13068;BME280;6600;51.362;6.686;2023-05-11T04:35:58;100998.84;;;13.52;100.00
13068;BME280;6600;51.362;6.686;2023-05-11T04:38:23;101010.06;;;13.49;100.00
13068;BME280;6600;51.362;6.686;2023-05-11T04:40:48;101006.53;;;13.49;100.00
13068;BME280;6600;51.362;6.686;2023-05-11T04:43:15;100997.88;;;13.47;100.00
13068;BME280;6600;51.362;6.686;2023-05-11T04:45:46;101006.63;;;13.42;100.00
13068;BME280;6600;51.362;6.686;2023-05-11T04:48:13;101010.97;;;13.43;100.00
13068;BME280;6600;51.362;6.686;2023-05-11T04:50:40;101002.91;;;13.43;100.00
13068;BME280;6600;51.362;6.686;2023-05-11T04:53:08;101009.09;;;13.44;100.00
13068;BME280;6600;51.362;6.686;2023-05-11T04:55:36;101008.28;;;13.43;100.00
13068;BME280;6600;51.362;6.686;2023-05-11T04:58:01;101007.81;;;13.46;100.00
13068;BME280;6600;51.362;6.686;2023-05-11T05:00:27;101013.22;;;13.46;100.00
13068;BME280;6600;51.362;6.686;2023-05-11T05:02:54;101018.13;;;13.49;100.00
13068;BME280;6600;51.362;6.686;2023-05-11T05:05:22;101014.88;;;13.47;100.00
13068;BME280;6600;51.362;6.686;2023-05-11T05:07:48;101017.09;;;13.50;100.00
13068;BME280;6600;51.362;6.686;2023-05-11T05:10:14;101016.06;;;13.51;100.00
13068;BME280;6600;51.362;6.686;2023-05-11T05:12:39;101016.84;;;13.52;100.00
13068;BME280;6600;51.362;6.686;2023-05-11T05:15:09;101019.31;;;13.53;100.00
13068;BME280;6600;51.362;6.686;2023-05-11T05:17:36;101028.06;;;13.49;100.00
13068;BME280;6600;51.362;6.686;2023-05-11T05:20:04;101034.28;;;13.49;100.00
13068;BME280;6600;51.362;6.686;2023-05-11T05:22:30;101026.09;;;13.44;100.00
13068;BME280;6600;51.362;6.686;2023-05-11T05:24:58;101031.75;;;13.54;100.00
13068;BME280;6600;51.362;6.686;2023-05-11T05:27:24;101033.75;;;13.59;100.00
13068;BME280;6600;51.362;6.686;2023-05-11T05:29:49;101041.31;;;13.50;100.00
13068;BME280;6600;51.362;6.686;2023-05-11T05:32:15;101032.13;;;13.58;100.00
13068;BME280;6600;51.362;6.686;2023-05-11T05:34:40;101035.03;;;13.56;100.00
13068;BME280;6600;51.362;6.686;2023-05-11T05:37:05;101037.88;;;13.61;100.00
13068;BME280;6600;51.362;6.686;2023-05-11T05:39:31;101039.13;;;13.59;100.00
13068;BME280;6600;51.362;6.686;2023-05-11T05:41:56;101033.06;;;13.63;100.00
13068;BME280;6600;51.362;6.686;2023-05-11T05:44:22;101045.63;;;13.70;100.00
13068;BME280;6600;51.362;6.686;2023-05-11T05:46:47;101048.91;;;13.72;100.00
13068;BME280;6600;51.362;6.686;2023-05-11T05:49:12;101048.47;;;13.75;100.00
13068;BME280;6600;51.362;6.686;2023-05-11T05:51:38;101052.72;;;13.82;100.00
13068;BME280;6600;51.362;6.686;2023-05-11T05:54:03;101051.28;;;13.80;100.00
13068;BME280;6600;51.362;6.686;2023-05-11T05:56:28;101056.94;;;13.90;100.00
13068;BME280;6600;51.362;6.686;2023-05-11T05:58:54;101059.31;;;13.98;100.00
13068;BME280;6600;51.362;6.686;2023-05-11T06:01:19;101060.81;;;13.94;100.00
13068;BME280;6600;51.362;6.686;2023-05-11T06:03:46;101062.53;;;14.06;100.00
13068;BME280;6600;51.362;6.686;2023-05-11T06:06:11;101066.63;;;14.09;100.00
13068;BME280;6600;51.362;6.686;2023-05-11T06:08:36;101066.72;;;14.14;100.00
13068;BME280;6600;51.362;6.686;2023-05-11T06:11:02;101066.19;;;14.24;100.00
13068;BME280;6600;51.362;6.686;2023-05-11T06:13:27;101067.00;;;14.24;100.00
13068;BME280;6600;51.362;6.686;2023-05-11T06:15:53;101064.81;;;14.33;100.00
13068;BME280;6600;51.362;6.686;2023-05-11T06:18:18;101061.38;;;14.26;100.00
13068;BME280;6600;51.362;6.686;2023-05-11T06:20:43;101064.28;;;14.24;100.00
13068;BME280;6600;51.362;6.686;2023-05-11T06:23:08;101067.06;;;14.36;100.00
13068;BME280;6600;51.362;6.686;2023-05-11T06:25:34;101062.94;;;14.33;100.00
13068;BME280;6600;51.362;6.686;2023-05-11T06:28:00;101054.97;;;14.38;100.00
13068;BME280;6600;51.362;6.686;2023-05-11T06:30:25;101065.63;;;14.33;100.00
13068;BME280;6600;51.362;6.686;2023-05-11T06:32:51;101068.19;;;14.28;100.00
13068;BME280;6600;51.362;6.686;2023-05-11T06:35:16;101064.59;;;14.34;100.00
13068;BME280;6600;51.362;6.686;2023-05-11T06:37:41;101055.44;;;14.35;100.00
13068;BME280;6600;51.362;6.686;2023-05-11T06:40:07;101063.31;;;14.48;100.00
13068;BME280;6600;51.362;6.686;2023-05-11T06:42:33;101054.31;;;14.54;100.00
13068;BME280;6600;51.362;6.686;2023-05-11T06:44:58;101061.69;;;14.59;100.00
13068;BME280;6600;51.362;6.686;2023-05-11T06:47:23;101058.78;;;14.60;100.00
13068;BME280;6600;51.362;6.686;2023-05-11T06:49:49;101064.53;;;14.64;100.00
13068;BME280;6600;51.362;6.686;2023-05-11T06:52:14;101072.16;;;14.67;100.00
13068;BME280;6600;51.362;6.686;2023-05-11T06:54:39;101070.63;;;14.71;100.00
13068;BME280;6600;51.362;6.686;2023-05-11T06:57:05;101068.03;;;14.76;100.00
13068;BME280;6600;51.362;6.686;2023-05-11T06:59:30;101062.28;;;14.73;100.00
13068;BME280;6600;51.362;6.686;2023-05-11T07:01:56;101068.38;;;14.80;100.00
13068;BME280;6600;51.362;6.686;2023-05-11T07:04:22;101063.13;;;14.85;100.00
13068;BME280;6600;51.362;6.686;2023-05-11T07:06:47;101067.00;;;14.89;100.00
13068;BME280;6600;51.362;6.686;2023-05-11T07:09:13;101055.25;;;14.95;100.00
13068;BME280;6600;51.362;6.686;2023-05-11T07:11:38;101060.66;;;15.06;100.00
13068;BME280;6600;51.362;6.686;2023-05-11T07:14:03;101063.06;;;15.31;100.00
13068;BME280;6600;51.362;6.686;2023-05-11T07:16:30;101060.69;;;15.35;100.00
13068;BME280;6600;51.362;6.686;2023-05-11T07:18:55;101062.84;;;15.33;100.00
13068;BME280;6600;51.362;6.686;2023-05-11T07:21:20;101063.03;;;15.43;100.00
13068;BME280;6600;51.362;6.686;2023-05-11T07:23:46;101068.78;;;15.46;100.00
13068;BME280;6600;51.362;6.686;2023-05-11T07:26:12;101060.22;;;15.49;100.00
13068;BME280;6600;51.362;6.686;2023-05-11T07:28:38;101065.03;;;15.47;100.00
13068;BME280;6600;51.362;6.686;2023-05-11T07:31:03;101065.88;;;15.36;100.00
13068;BME280;6600;51.362;6.686;2023-05-11T07:33:29;101069.16;;;15.50;100.00
13068;BME280;6600;51.362;6.686;2023-05-11T07:35:55;101061.75;;;15.85;100.00
13068;BME280;6600;51.362;6.686;2023-05-11T07:38:20;101064.38;;;15.97;100.00
13068;BME280;6600;51.362;6.686;2023-05-11T07:40:46;101065.25;;;16.14;100.00
13068;BME280;6600;51.362;6.686;2023-05-11T07:43:11;101071.13;;;16.11;100.00
13068;BME280;6600;51.362;6.686;2023-05-11T07:45:37;101071.31;;;16.21;100.00
13068;BME280;6600;51.362;6.686;2023-05-11T07:48:02;101070.94;;;16.29;99.74
13068;BME280;6600;51.362;6.686;2023-05-11T07:50:28;101072.91;;;16.50;100.00
13068;BME280;6600;51.362;6.686;2023-05-11T07:52:53;101072.69;;;16.69;99.78
13068;BME280;6600;51.362;6.686;2023-05-11T07:55:19;101074.31;;;16.70;95.42
13068;BME280;6600;51.362;6.686;2023-05-11T07:57:49;101077.09;;;16.91;97.89
13068;BME280;6600;51.362;6.686;2023-05-11T08:00:14;101068.44;;;16.56;99.35
13068;BME280;6600;51.362;6.686;2023-05-11T08:02:40;101067.75;;;16.65;100.00
13068;BME280;6600;51.362;6.686;2023-05-11T08:05:06;101059.22;;;16.40;100.00
13068;BME280;6600;51.362;6.686;2023-05-11T08:07:32;101068.72;;;16.26;100.00
13068;BME280;6600;51.362;6.686;2023-05-11T08:09:57;101072.47;;;16.25;100.00
13068;BME280;6600;51.362;6.686;2023-05-11T08:12:23;101072.22;;;15.82;100.00
13068;BME280;6600;51.362;6.686;2023-05-11T08:14:48;101073.84;;;15.83;100.00
13068;BME280;6600;51.362;6.686;2023-05-11T08:17:14;101075.97;;;15.81;100.00
13068;BME280;6600;51.362;6.686;2023-05-11T08:19:39;101082.66;;;15.61;100.00
13068;BME280;6600;51.362;6.686;2023-05-11T08:22:05;101084.75;;;15.59;100.00
13068;BME280;6600;51.362;6.686;2023-05-11T08:24:30;101081.97;;;15.54;100.00
13068;BME280;6600;51.362;6.686;2023-05-11T08:26:55;101083.56;;;15.55;100.00
13068;BME280;6600;51.362;6.686;2023-05-11T08:29:21;101087.22;;;15.61;100.00
13068;BME280;6600;51.362;6.686;2023-05-11T08:31:46;101083.22;;;15.63;100.00
13068;BME280;6600;51.362;6.686;2023-05-11T08:34:13;101074.63;;;15.66;100.00
13068;BME280;6600;51.362;6.686;2023-05-11T08:36:38;101078.78;;;15.57;100.00
13068;BME280;6600;51.362;6.686;2023-05-11T08:39:04;101083.44;;;15.62;100.00
13068;BME280;6600;51.362;6.686;2023-05-11T08:41:30;101079.88;;;15.73;100.00
13068;BME280;6600;51.362;6.686;2023-05-11T08:43:56;101083.09;;;15.58;100.00
13068;BME280;6600;51.362;6.686;2023-05-11T08:46:23;101090.50;;;15.63;100.00
13068;BME280;6600;51.362;6.686;2023-05-11T08:48:51;101088.25;;;15.72;100.00
13068;BME280;6600;51.362;6.686;2023-05-11T08:51:17;101085.63;;;15.77;100.00
13068;BME280;6600;51.362;6.686;2023-05-11T08:53:42;101086.31;;;15.84;100.00
13068;BME280;6600;51.362;6.686;2023-05-11T08:56:08;101087.47;;;15.88;100.00
13068;BME280;6600;51.362;6.686;2023-05-11T08:58:34;101090.03;;;15.94;100.00
13068;BME280;6600;51.362;6.686;2023-05-11T09:01:04;101091.50;;;15.74;100.00
13068;BME280;6600;51.362;6.686;2023-05-11T09:03:30;101094.91;;;15.81;100.00
13068;BME280;6600;51.362;6.686;2023-05-11T09:05:56;101088.28;;;15.88;100.00
13068;BME280;6600;51.362;6.686;2023-05-11T09:08:22;101094.13;;;15.97;100.00
13068;BME280;6600;51.362;6.686;2023-05-11T09:10:49;101100.97;;;15.88;100.00
13068;BME280;6600;51.362;6.686;2023-05-11T09:13:16;101097.78;;;15.91;100.00
13068;BME280;6600;51.362;6.686;2023-05-11T09:15:41;101091.22;;;15.87;100.00
13068;BME280;6600;51.362;6.686;2023-05-11T09:18:06;101090.75;;;15.90;100.00
13068;BME280;6600;51.362;6.686;2023-05-11T09:20:33;101094.59;;;15.94;100.00
13068;BME280;6600;51.362;6.686;2023-05-11T09:22:59;101091.59;;;16.07;100.00
13068;BME280;6600;51.362;6.686;2023-05-11T09:25:25;101089.56;;;16.14;100.00
13068;BME280;6600;51.362;6.686;2023-05-11T09:27:52;101092.75;;;16.11;100.00
13068;BME280;6600;51.362;6.686;2023-05-11T09:30:21;101084.44;;;16.12;100.00
13068;BME280;6600;51.362;6.686;2023-05-11T09:32:54;101091.56;;;16.18;100.00
13068;BME280;6600;51.362;6.686;2023-05-11T09:35:21;101082.63;;;16.18;100.00
13068;BME280;6600;51.362;6.686;2023-05-11T09:37:57;101084.44;;;16.29;100.00
13068;BME280;6600;51.362;6.686;2023-05-11T09:40:24;101083.28;;;16.25;100.00
13068;BME280;6600;51.362;6.686;2023-05-11T09:42:49;101083.97;;;16.32;100.00
13068;BME280;6600;51.362;6.686;2023-05-11T09:45:39;101081.81;;;16.34;100.00
13068;BME280;6600;51.362;6.686;2023-05-11T09:48:06;;;;16.53;
13068;BME280;6600;51.362;6.686;2023-05-11T09:50:37;101088.47;;;16.43;100.00
13068;BME280;6600;51.362;6.686;2023-05-11T09:53:02;101093.13;;;16.31;100.00
13068;BME280;6600;51.362;6.686;2023-05-11T09:55:28;101092.16;;;16.37;100.00
13068;BME280;6600;51.362;6.686;2023-05-11T09:57:58;101095.28;;;16.46;100.00
13068;BME280;6600;51.362;6.686;2023-05-11T10:00:24;101094.88;;;16.54;100.00
13068;BME280;6600;51.362;6.686;2023-05-11T10:03:00;101090.41;;;16.59;100.00
13068;BME280;6600;51.362;6.686;2023-05-11T10:05:27;101098.88;;;16.51;99.54
13068;BME280;6600;51.362;6.686;2023-05-11T10:07:57;101098.88;;;16.51;99.64
13068;BME280;6600;51.362;6.686;2023-05-11T10:10:23;101092.06;;;16.49;99.63
13068;BME280;6600;51.362;6.686;2023-05-11T10:12:50;101095.13;;;16.52;99.76
13068;BME280;6600;51.362;6.686;2023-05-11T10:15:17;101088.03;;;16.35;98.70
13068;BME280;6600;51.362;6.686;2023-05-11T10:17:45;101090.69;;;16.46;99.56
13068;BME280;6600;51.362;6.686;2023-05-11T10:20:11;101084.28;;;16.52;99.15
13068;BME280;6600;51.362;6.686;2023-05-11T10:22:37;101085.94;;;16.53;99.09
13068;BME280;6600;51.362;6.686;2023-05-11T10:25:03;101082.88;;;16.61;98.45
13068;BME280;6600;51.362;6.686;2023-05-11T10:27:30;101081.94;;;16.73;98.40
13068;BME280;6600;51.362;6.686;2023-05-11T10:29:57;101086.84;;;16.76;98.64
13068;BME280;6600;51.362;6.686;2023-05-11T10:32:23;101080.88;;;16.74;98.54
13068;BME280;6600;51.362;6.686;2023-05-11T10:34:49;101086.53;;;16.89;98.77
13068;BME280;6600;51.362;6.686;2023-05-11T10:37:15;101080.28;;;17.05;97.18
13068;BME280;6600;51.362;6.686;2023-05-11T10:39:41;101085.91;;;17.03;96.77
13068;BME280;6600;51.362;6.686;2023-05-11T10:42:27;101085.78;;;17.10;94.37
13068;BME280;6600;51.362;6.686;2023-05-11T10:48:18;101085.47;;;17.50;94.89
13068;BME280;6600;51.362;6.686;2023-05-11T10:51:17;101082.69;;;17.61;93.86
13068;BME280;6600;51.362;6.686;2023-05-11T11:01:50;101073.50;;;18.16;92.57
13068;BME280;6600;51.362;6.686;2023-05-11T11:04:16;101072.53;;;18.27;91.95
13068;BME280;6600;51.362;6.686;2023-05-11T11:06:43;101076.16;;;18.11;90.41
13068;BME280;6600;51.362;6.686;2023-05-11T11:09:10;101077.25;;;18.10;91.69
13068;BME280;6600;51.362;6.686;2023-05-11T11:11:43;101072.94;;;18.14;91.73
13068;BME280;6600;51.362;6.686;2023-05-11T11:14:15;101084.03;;;18.39;90.67
13068;BME280;6600;51.362;6.686;2023-05-11T11:19:45;101071.22;;;18.35;86.29
13068;BME280;6600;51.362;6.686;2023-05-11T11:25:09;101066.13;;;18.70;88.53
13068;BME280;6600;51.362;6.686;2023-05-11T11:30:15;101064.47;;;18.69;87.25
13068;BME280;6600;51.362;6.686;2023-05-11T11:32:42;101060.97;;;18.69;87.31
13068;BME280;6600;51.362;6.686;2023-05-11T11:38:14;101069.84;;;19.01;87.59
13068;BME280;6600;51.362;6.686;2023-05-11T11:40:42;101066.66;;;19.09;87.91
13068;BME280;6600;51.362;6.686;2023-05-11T11:43:21;101067.66;;;18.98;85.57
13068;BME280;6600;51.362;6.686;2023-05-11T11:46:01;101068.75;;;18.97;84.65
13068;BME280;6600;51.362;6.686;2023-05-11T11:48:37;101066.59;;;18.99;84.12
13068;BME280;6600;51.362;6.686;2023-05-11T11:56:05;101058.34;;;18.84;84.54
13068;BME280;6600;51.362;6.686;2023-05-11T12:01:13;101060.31;;;18.56;85.31
13068;BME280;6600;51.362;6.686;2023-05-11T12:03:40;101058.66;;;18.50;85.23
13068;BME280;6600;51.362;6.686;2023-05-11T12:06:06;101062.94;;;18.46;85.34
13068;BME280;6600;51.362;6.686;2023-05-11T12:08:33;101062.31;;;18.39;86.91
13068;BME280;6600;51.362;6.686;2023-05-11T12:11:00;101061.19;;;18.35;84.94
13068;BME280;6600;51.362;6.686;2023-05-11T12:13:26;101053.22;;;18.50;84.75
13068;BME280;6600;51.362;6.686;2023-05-11T12:16:16;101049.72;;;18.55;85.78
13068;BME280;6600;51.362;6.686;2023-05-11T12:18:58;101062.00;;;18.62;84.29
13068;BME280;6600;51.362;6.686;2023-05-11T12:21:28;101055.78;;;18.35;85.22
13068;BME280;6600;51.362;6.686;2023-05-11T12:23:56;101051.31;;;18.24;86.20
13068;BME280;6600;51.362;6.686;2023-05-11T12:26:23;101053.94;;;18.14;87.18
13068;BME280;6600;51.362;6.686;2023-05-11T12:29:05;101046.13;;;18.49;87.33
13068;BME280;6600;51.362;6.686;2023-05-11T12:31:35;101045.63;;;18.52;86.72
13068;BME280;6600;51.362;6.686;2023-05-11T12:34:01;101041.47;;;18.77;85.45
13068;BME280;6600;51.362;6.686;2023-05-11T12:36:26;101055.25;;;19.12;85.38
13068;BME280;6600;51.362;6.686;2023-05-11T12:38:51;101045.03;;;19.29;83.19
13068;BME280;6600;51.362;6.686;2023-05-11T12:41:21;101042.22;;;19.14;82.16
13068;BME280;6600;51.362;6.686;2023-05-11T12:43:50;101038.47;;;19.25;81.21
13068;BME280;6600;51.362;6.686;2023-05-11T12:46:20;101037.94;;;19.23;80.91
13068;BME280;6600;51.362;6.686;2023-05-11T12:48:47;101034.44;;;19.33;81.32
13068;BME280;6600;51.362;6.686;2023-05-11T12:51:13;101029.06;;;19.43;81.94
13068;BME280;6600;51.362;6.686;2023-05-11T12:53:58;101033.34;;;19.29;82.68
13068;BME280;6600;51.362;6.686;2023-05-11T12:56:23;101023.50;;;19.17;83.84
13068;BME280;6600;51.362;6.686;2023-05-11T12:58:49;101020.47;;;19.14;83.73
13068;BME280;6600;51.362;6.686;2023-05-11T13:01:14;101035.59;;;18.95;82.42
13068;BME280;6600;51.362;6.686;2023-05-11T13:03:44;101027.94;;;18.87;82.77
13068;BME280;6600;51.362;6.686;2023-05-11T13:06:11;101021.78;;;19.01;82.49
13068;BME280;6600;51.362;6.686;2023-05-11T13:08:38;101025.91;;;19.09;83.15
13068;BME280;6600;51.362;6.686;2023-05-11T13:11:23;101021.44;;;18.88;82.79
13068;BME280;6600;51.362;6.686;2023-05-11T13:13:51;101017.56;;;18.74;82.66
13068;BME280;6600;51.362;6.686;2023-05-11T13:16:27;101020.78;;;18.71;82.41
13068;BME280;6600;51.362;6.686;2023-05-11T13:19:00;101014.59;;;18.80;84.34
13068;BME280;6600;51.362;6.686;2023-05-11T13:21:26;101009.81;;;18.55;83.03
13068;BME280;6600;51.362;6.686;2023-05-11T13:23:53;101011.06;;;18.75;84.90
13068;BME280;6600;51.362;6.686;2023-05-11T13:26:23;101005.69;;;18.48;84.69
13068;BME280;6600;51.362;6.686;2023-05-11T13:28:49;101014.25;;;18.66;84.39
13068;BME280;6600;51.362;6.686;2023-05-11T13:31:15;101010.53;;;18.78;84.48
13068;BME280;6600;51.362;6.686;2023-05-11T13:33:40;101016.41;;;18.33;83.91